Time;durP1;ratioP1;P1;durP2;ratioP2;P2;SDS_P1;SDS_P2;PMS_P1;PMS_P2;Temp;Humidity;BMP_temperature;BMP_pressure;BME280_temperature;BME280_humidity;BME280_pressure;Samples;Min_cycle;Max_cycle;Signal;HPM_P1;HPM_P2
2024/01/10 00:03:05;;;;;;;312.30;132.10;;;;;;;-13.93;77.40;100300.78;434549;1260;111377;-40
2024/01/10 00:13:11;;;;;;;400.50;163.80;;;;;;;-14.22;76.36;100309.20;434435;1253;107777;-41
2024/01/10 00:23:18;;;;;;;364.10;147.40;;;;;;;-14.49;76.40;100304.75;434476;1259;99120;-41
2024/01/10 00:33:24;;;;;;;;;;;;;;;-14.52;76.88;100304.48;434412;1257;109702;-40
2024/01/10 00:43:32;;;;;;;387.70;155.60;;;;;;;-14.32;77.56;100308.59;434513;1259;98919;-40
2024/01/10 01:03:44;;;;;;;346.60;144.60;;;;;;;-14.36;77.04;100311.91;434505;1254;108434;-41
2024/01/10 01:13:51;;;;;;;381.70;159.40;;;;;;;-14.35;77.18;100319.16;434496;1266;99204;-40
2024/01/10 01:23:58;;;;;;;428.50;176.30;;;;;;;-14.86;76.18;100328.02;434973;1259;107403;-41
2024/01/10 01:34:05;;;;;;;412.80;168.80;;;;;;;-15.21;75.96;100330.02;434787;1257;98004;-40
2024/01/10 01:44:13;;;;;;;387.00;160.20;;;;;;;-15.44;76.32;100306.05;434987;1256;109993;-40
2024/01/10 01:54:20;;;;;;;376.60;149.50;;;;;;;-15.41;76.39;100299.74;434548;1257;107411;-40
2024/01/10 02:04:29;;;;;;;398.50;163.90;;;;;;;-15.29;76.65;100288.55;434399;1257;99329;-41
2024/01/10 02:14:36;;;;;;;384.20;156.00;;;;;;;-15.35;76.50;100289.01;434362;1258;108888;-41
2024/01/10 02:24:42;;;;;;;;;;;;;;;-15.27;76.58;100285.14;434538;1259;99287;-40
2024/01/10 02:34:49;;;;;;;307.20;124.90;;;;;;;-15.33;76.73;100280.69;434710;1257;112127;-40
2024/01/10 02:44:56;;;;;;;259.70;103.90;;;;;;;-15.20;77.08;100267.40;435188;1257;107188;-39
2024/01/10 02:55:03;;;;;;;221.30;88.10;;;;;;;-14.88;77.71;100259.85;435345;1257;99295;-40
2024/01/10 03:05:11;;;;;;;229.70;94.10;;;;;;;-14.59;77.64;100249.77;435215;1256;108941;-41
2024/01/10 03:15:18;;;;;;;261.10;99.50;;;;;;;-14.40;77.70;100250.68;435228;1255;99257;-42
2024/01/10 03:25:24;;;;;;;244.40;94.50;;;;;;;-14.27;77.45;100248.35;435239;1256;110637;-41
2024/01/10 03:35:31;;;;;;;236.20;94.60;;;;;;;-14.24;77.46;100242.00;435254;1256;107766;-41
2024/01/10 03:45:38;;;;;;;292.20;110.00;;;;;;;-14.21;77.54;100240.23;435230;1255;99263;-39
2024/01/10 03:55:45;;;;;;;349.10;138.40;;;;;;;-14.40;77.05;100239.02;435202;1264;107507;-40
2024/01/10 04:05:52;;;;;;;322.50;122.70;;;;;;;-14.64;77.16;100237.86;435148;1256;99240;-39
2024/01/10 04:16:00;;;;;;;301.80;123.10;;;;;;;-14.63;77.22;100236.66;434969;1256;111883;-41
2024/01/10 04:26:06;;;;;;;323.50;131.70;;;;;;;-14.71;77.14;100233.92;435085;1257;108142;-40
2024/01/10 04:36:13;;;;;;;300.90;118.70;;;;;;;-14.73;77.47;100232.28;435430;1256;99223;-40
2024/01/10 04:46:19;;;;;;;251.70;97.40;;;;;;;-14.80;77.33;100232.27;435301;1257;108269;-40
2024/01/10 04:56:26;;;;;;;323.60;125.60;;;;;;;-14.76;77.43;100236.74;435347;1256;98815;-39
2024/01/10 05:06:33;;;;;;;329.20;134.90;;;;;;;-14.79;77.41;100231.08;435291;1257;110654;-41
2024/01/10 05:16:41;;;;;;;317.60;127.40;;;;;;;-14.83;77.59;100237.27;435214;1256;109894;-40
2024/01/10 05:36:55;;;;;;;272.80;111.70;;;;;;;-14.84;77.30;100236.42;435257;1256;108485;-40
2024/01/10 05:47:02;;;;;;;307.30;120.60;;;;;;;-14.99;77.06;100249.40;435246;1254;97995;-40
2024/01/10 05:57:08;;;;;;;425.80;162.60;;;;;;;-15.31;76.78;100258.65;435544;1264;110924;-40
2024/01/10 06:07:15;;;;;;;403.30;149.30;;;;;;;-15.41;76.58;100255.95;435220;1265;108367;-39
2024/01/10 06:17:22;;;;;;;;;;;;;;;-15.59;76.66;100248.70;435328;1264;97915;-39
2024/01/10 06:37:38;;;;;;;422.50;162.30;;;;;;;-15.74;76.82;100247.80;435274;1255;99220;-39
2024/01/10 06:47:45;;;;;;;321.90;125.70;;;;;;;-15.53;77.33;100237.42;435359;1254;110354;-40
2024/01/10 07:07:57;;;;;;;271.40;104.00;;;;;;;-14.91;77.88;100226.23;435273;1254;99221;-40
2024/01/10 07:18:06;;;;;;;280.50;102.70;;;;;;;-14.61;77.98;100215.95;435226;1251;107975;-39
2024/01/10 07:28:13;;;;;;;290.50;120.70;;;;;;;-14.27;78.14;100208.70;435279;1264;98951;-41
2024/01/10 07:38:20;;;;;;;303.20;121.00;;;;;;;-13.96;78.02;100213.05;435312;1256;111218;-41
2024/01/10 07:48:26;;;;;;;325.10;126.50;;;;;;;-13.65;78.31;100206.16;435370;1254;107787;-38
2024/01/10 07:58:33;;;;;;;277.50;113.00;;;;;;;-13.40;78.06;100201.79;435316;1251;99318;-40
2024/01/10 08:28:52;;;;;;;256.30;98.60;;;;;;;-10.35;79.30;100203.35;435240;1254;110484;-41
2024/01/10 08:39:00;;;;;;;243.40;98.00;;;;;;;-8.99;79.39;100202.45;435267;1254;107716;-40
2024/01/10 08:59:13;;;;;;;304.20;119.60;;;;;;;-7.97;79.01;100205.34;435238;1250;107093;-40
2024/01/10 09:19:25;;;;;;;349.60;132.40;;;;;;;-8.19;78.55;100204.36;435392;1254;111496;-39
2024/01/10 09:39:38;;;;;;;185.70;83.30;;;;;;;-7.59;78.39;100196.98;435306;1254;98592;-40
2024/01/10 09:59:52;;;;;;;176.10;81.10;;;;;;;-6.97;78.53;100187.09;435195;1264;106541;-40
2024/01/10 10:09:58;;;;;;;180.30;75.50;;;;;;;-6.50;78.59;100170.37;435252;1250;97962;-39
2024/01/10 10:20:06;;;;;;;162.70;69.70;;;;;;;-6.17;78.58;100165.42;435229;1256;107599;-40
2024/01/10 10:30:13;;;;;;;138.50;65.90;;;;;;;-5.73;78.64;100169.73;435388;1251;98805;-40
2024/01/10 10:40:21;;;;;;;153.00;73.00;;;;;;;-5.43;78.50;100167.95;435350;1254;111599;-38
2024/01/10 10:50:30;;;;;;;164.30;78.70;;;;;;;-5.00;78.62;100155.55;435258;1250;107185;-39
2024/01/10 11:00:36;;;;;;;264.90;99.60;;;;;;;-4.70;78.52;100138.73;435414;1254;98009;-39
2024/01/10 11:10:45;;;;;;;249.00;102.50;;;;;;;-4.59;78.37;100133.91;435442;1253;112819;-39
2024/01/10 11:20:58;;;;;;;260.90;104.60;;;;;;;-4.48;78.29;100124.94;435333;1251;109194;-40
2024/01/10 11:31:04;;;;;;;244.70;95.80;;;;;;;-4.31;78.41;100124.41;435313;1250;98692;-39
2024/01/10 11:41:11;;;;;;;227.70;92.30;;;;;;;-4.25;78.20;100113.53;435327;1250;112755;-40
2024/01/10 11:51:20;;;;;;;255.70;98.80;;;;;;;-4.17;77.98;100101.94;435403;1253;108060;-38
2024/01/10 12:01:25;;;;;;;244.00;96.90;;;;;;;-4.07;77.98;100098.84;435326;1254;99214;-40
2024/01/10 12:11:33;;;;;;;221.00;86.90;;;;;;;-4.09;77.87;100086.58;435368;1252;107969;-40
2024/01/10 12:21:40;;;;;;;224.90;86.50;;;;;;;-4.06;78.14;100082.44;435148;1257;99256;-40
2024/01/10 12:31:48;;;;;;;218.00;83.70;;;;;;;-3.95;77.93;100080.69;435241;1250;111928;-40
2024/01/10 12:41:54;;;;;;;227.90;86.40;;;;;;;-3.92;77.85;100071.71;435370;1250;107775;-40
2024/01/10 13:02:12;;;;;;;227.00;90.10;;;;;;;-3.77;77.90;100055.19;435290;1254;108059;-39
2024/01/10 13:12:20;;;;;;;203.40;81.70;;;;;;;-3.71;77.87;100055.16;435246;1250;99319;-40
2024/01/10 13:22:27;;;;;;;223.70;85.80;;;;;;;-3.68;77.87;100043.52;435336;1254;112046;-42
2024/01/10 13:42:39;;;;;;;196.90;77.00;;;;;;;-3.66;77.60;100032.41;435404;1250;99253;-40
2024/01/10 13:52:46;;;;;;;201.50;79.10;;;;;;;-3.64;77.53;100029.64;435170;1254;107272;-39
2024/01/10 14:23:07;;;;;;;201.80;80.50;;;;;;;-4.11;77.21;100016.51;435334;1250;107271;-39
2024/01/10 14:33:13;;;;;;;207.90;82.40;;;;;;;-4.31;77.35;100020.90;435252;1250;99214;-40
2024/01/10 14:43:21;;;;;;;217.20;82.60;;;;;;;-4.64;77.01;100008.99;435336;1254;108394;-40
2024/01/10 14:53:28;;;;;;;172.10;69.00;;;;;;;-5.04;77.10;100007.40;435747;1250;99243;-39
2024/01/10 15:03:36;;;;;;;161.70;76.00;;;;;;;-5.37;77.13;100007.23;435170;1254;112316;-40
2024/01/10 15:13:44;;;;;;;163.20;78.20;;;;;;;-5.71;77.20;100006.75;435334;1254;108456;-40
2024/01/10 15:34:02;;;;;;;193.40;88.20;;;;;;;-6.24;77.49;100001.93;435284;1254;109488;-40
2024/01/10 15:54:17;;;;;;;214.00;98.00;;;;;;;-6.82;77.49;99989.82;435005;1254;113131;-41
2024/01/10 16:04:24;;;;;;;248.30;105.20;;;;;;;-7.05;77.58;99976.41;436167;1254;107314;-40
2024/01/10 16:24:39;;;;;;;289.00;125.70;;;;;;;-7.20;78.11;99965.37;435407;1250;107034;-42
2024/01/10 16:34:47;;;;;;;309.80;135.10;;;;;;;-7.30;78.07;99961.14;436191;1254;99212;-39
2024/01/10 16:44:54;;;;;;;312.80;132.00;;;;;;;-7.39;78.15;99955.29;435509;1256;111530;-40
2024/01/10 16:55:01;;;;;;;287.60;123.70;;;;;;;-7.43;78.32;99952.13;435350;1256;107911;-39
2024/01/10 17:05:10;;;;;;;273.60;115.00;;;;;;;-7.28;78.53;99945.77;435260;1250;99240;-40
2024/01/10 17:15:17;;;;;;;268.20;117.00;;;;;;;-7.09;78.40;99935.29;435967;1250;107864;-40
2024/01/10 17:35:31;;;;;;;290.90;125.10;;;;;;;-7.01;78.27;99936.40;435209;1254;111281;-43
2024/01/10 17:55:42;;;;;;;265.20;115.90;;;;;;;-7.36;78.33;99936.11;435637;1255;99855;-40
2024/01/10 18:05:49;;;;;;;289.40;129.30;;;;;;;-7.60;77.98;99929.20;436056;1254;109393;-41
2024/01/10 18:15:57;;;;;;;305.10;139.40;;;;;;;-8.13;77.68;99916.34;437479;1250;98679;-41
2024/01/10 18:26:04;;;;;;;341.80;152.90;;;;;;;-8.49;77.91;99906.92;436805;1254;111149;-40
2024/01/10 18:36:13;;;;;;;300.70;137.00;;;;;;;-8.50;78.38;99903.39;435738;1256;107692;-38
2024/01/10 18:46:18;;;;;;;;;;;;;;;-8.69;78.07;99907.73;435361;1254;99544;-40
2024/01/10 18:56:25;;;;;;;418.80;189.80;;;;;;;-8.99;78.25;99897.13;435885;1254;108597;-41
2024/01/10 19:16:48;;;;;;;404.40;181.00;;;;;;;-9.15;78.74;99873.00;435294;1254;112432;-40
2024/01/10 19:37:02;;;;;;;262.20;114.70;;;;;;;-8.76;79.12;99857.02;435361;1250;99243;-39
2024/01/10 19:47:09;;;;;;;280.30;118.70;;;;;;;-8.49;79.17;99855.96;435240;1256;107800;-41
2024/01/10 20:07:23;;;;;;;274.60;124.30;;;;;;;-8.20;79.34;99849.30;435294;1254;112891;-41
2024/01/10 20:17:29;;;;;;;285.30;130.00;;;;;;;-8.19;79.24;99864.59;435530;1255;107910;-40
2024/01/10 20:27:36;;;;;;;301.00;131.20;;;;;;;-8.20;79.24;99873.89;435259;1250;99072;-40
2024/01/10 20:37:43;;;;;;;297.70;134.20;;;;;;;-8.49;78.84;99875.14;435341;1256;107445;-39
2024/01/10 20:47:51;;;;;;;330.90;149.50;;;;;;;-8.91;78.58;99878.11;435441;1260;99331;-39
2024/01/10 20:57:57;;;;;;;326.30;144.90;;;;;;;-9.29;78.60;99871.63;435582;1251;112065;-39
2024/01/10 21:08:04;;;;;;;311.60;137.80;;;;;;;-9.31;79.26;99872.21;435353;1256;107603;-40
2024/01/10 21:18:11;;;;;;;260.30;119.50;;;;;;;-9.23;79.41;99854.94;435441;1256;98819;-40
2024/01/10 21:28:20;;;;;;;282.10;121.00;;;;;;;-9.10;79.70;99851.21;435375;1256;107946;-39
2024/01/10 21:38:27;;;;;;;266.90;119.70;;;;;;;-8.91;79.70;99845.50;435235;1250;99282;-39
2024/01/10 21:48:34;;;;;;;245.00;95.20;;;;;;;-8.85;79.62;99836.27;435279;1251;112958;-40
2024/01/10 21:58:42;;;;;;;269.10;121.50;;;;;;;-8.84;79.80;99840.36;435167;1256;109863;-40
2024/01/10 22:08:50;;;;;;;268.70;120.20;;;;;;;-8.85;79.55;99852.71;436344;1251;98001;-40
2024/01/10 22:18:57;;;;;;;282.40;120.80;;;;;;;-9.08;79.37;99860.02;435876;1251;107920;-40
2024/01/10 22:29:03;;;;;;;271.90;120.40;;;;;;;-9.29;79.35;99862.90;435962;1250;99247;-41
2024/01/10 22:49:17;;;;;;;268.00;122.00;;;;;;;-9.71;79.52;99842.23;435366;1256;108054;-38
2024/01/10 22:59:26;;;;;;;286.60;125.90;;;;;;;-9.83;79.34;99837.34;435308;1256;99247;-39
2024/01/10 23:09:33;;;;;;;278.60;122.90;;;;;;;-10.04;79.20;99823.64;435325;1256;107501;-41
2024/01/10 23:19:40;;;;;;;291.30;124.30;;;;;;;-10.12;79.60;99808.35;435394;1257;98027;-40
2024/01/10 23:29:47;;;;;;;275.60;117.80;;;;;;;-10.10;79.55;99780.98;435271;1251;111242;-40
2024/01/10 23:39:54;;;;;;;249.50;109.10;;;;;;;-10.06;79.87;99751.77;435306;1254;109491;-40
2024/01/10 23:50:01;;;;;;;231.40;101.90;;;;;;;-9.78;80.08;99729.28;435359;1256;98837;-41
